sensor_id;sensor_type;location;lat;lon;timestamp;P1;durP1;ratioP1;P2;durP2;ratioP2
42690;SDS011;28306;55.744;37.578;2022-10-29T00:00:35;3.00;;;1.50;;
42690;SDS011;28306;55.744;37.578;2022-10-29T00:03:01;2.72;;;1.48;;
42690;SDS011;28306;55.744;37.578;2022-10-29T00:05:27;2.90;;;1.30;;
42690;SDS011;28306;55.744;37.578;2022-10-29T00:07:52;2.30;;;1.15;;
42690;SDS011;28306;55.744;37.578;2022-10-29T00:10:18;4.88;;;1.70;;
42690;SDS011;28306;55.744;37.578;2022-10-29T00:12:43;2.85;;;1.33;;
42690;SDS011;28306;55.744;37.578;2022-10-29T00:15:09;2.25;;;1.30;;
42690;SDS011;28306;55.744;37.578;2022-10-29T00:17:35;3.78;;;1.65;;
42690;SDS011;28306;55.744;37.578;2022-10-29T00:20:00;3.28;;;1.67;;
42690;SDS011;28306;55.744;37.578;2022-10-29T00:22:26;3.40;;;1.50;;
42690;SDS011;28306;55.744;37.578;2022-10-29T00:24:52;3.10;;;1.58;;
42690;SDS011;28306;55.744;37.578;2022-10-29T00:27:17;2.35;;;1.50;;
42690;SDS011;28306;55.744;37.578;2022-10-29T00:29:43;3.42;;;1.63;;
42690;SDS011;28306;55.744;37.578;2022-10-29T00:32:09;2.75;;;1.50;;
42690;SDS011;28306;55.744;37.578;2022-10-29T00:34:35;5.65;;;1.70;;
42690;SDS011;28306;55.744;37.578;2022-10-29T00:37:02;2.38;;;1.40;;
42690;SDS011;28306;55.744;37.578;2022-10-29T00:39:28;1.77;;;1.35;;
42690;SDS011;28306;55.744;37.578;2022-10-29T00:41:54;2.08;;;1.42;;
42690;SDS011;28306;55.744;37.578;2022-10-29T00:44:27;3.28;;;1.45;;
42690;SDS011;28306;55.744;37.578;2022-10-29T00:46:57;3.05;;;1.50;;
42690;SDS011;28306;55.744;37.578;2022-10-29T00:49:25;4.20;;;1.40;;
42690;SDS011;28306;55.744;37.578;2022-10-29T00:51:51;2.13;;;1.25;;
42690;SDS011;28306;55.744;37.578;2022-10-29T00:54:17;4.63;;;1.33;;
42690;SDS011;28306;55.744;37.578;2022-10-29T00:56:47;5.45;;;1.40;;
42690;SDS011;28306;55.744;37.578;2022-10-29T00:59:16;2.08;;;1.05;;
42690;SDS011;28306;55.744;37.578;2022-10-29T01:01:43;1.77;;;0.95;;
42690;SDS011;28306;55.744;37.578;2022-10-29T01:04:10;2.88;;;1.30;;
42690;SDS011;28306;55.744;37.578;2022-10-29T01:06:37;4.82;;;1.38;;
42690;SDS011;28306;55.744;37.578;2022-10-29T01:09:03;5.20;;;1.48;;
42690;SDS011;28306;55.744;37.578;2022-10-29T01:14:16;3.17;;;1.10;;
42690;SDS011;28306;55.744;37.578;2022-10-29T01:22:10;3.88;;;0.93;;
42690;SDS011;28306;55.744;37.578;2022-10-29T01:33:16;2.10;;;1.25;;
42690;SDS011;28306;55.744;37.578;2022-10-29T01:38:34;2.67;;;1.00;;
42690;SDS011;28306;55.744;37.578;2022-10-29T01:43:39;2.38;;;1.20;;
42690;SDS011;28306;55.744;37.578;2022-10-29T01:46:11;2.97;;;1.05;;
42690;SDS011;28306;55.744;37.578;2022-10-29T01:48:40;3.10;;;1.25;;
42690;SDS011;28306;55.744;37.578;2022-10-29T01:51:18;4.28;;;1.15;;
42690;SDS011;28306;55.744;37.578;2022-10-29T01:53:46;2.35;;;1.05;;
42690;SDS011;28306;55.744;37.578;2022-10-29T01:56:13;7.55;;;1.30;;
42690;SDS011;28306;55.744;37.578;2022-10-29T01:58:39;5.95;;;1.35;;
42690;SDS011;28306;55.744;37.578;2022-10-29T02:06:58;5.72;;;1.13;;
42690;SDS011;28306;55.744;37.578;2022-10-29T02:09:26;4.38;;;1.10;;
42690;SDS011;28306;55.744;37.578;2022-10-29T02:12:00;9.77;;;1.17;;
42690;SDS011;28306;55.744;37.578;2022-10-29T02:14:37;2.65;;;1.10;;
42690;SDS011;28306;55.744;37.578;2022-10-29T02:17:07;3.53;;;1.08;;
42690;SDS011;28306;55.744;37.578;2022-10-29T02:19:33;4.72;;;1.20;;
42690;SDS011;28306;55.744;37.578;2022-10-29T02:22:00;3.40;;;1.00;;
42690;SDS011;28306;55.744;37.578;2022-10-29T02:24:26;1.77;;;0.90;;
42690;SDS011;28306;55.744;37.578;2022-10-29T02:26:51;8.30;;;1.20;;
42690;SDS011;28306;55.744;37.578;2022-10-29T02:29:17;1.73;;;0.90;;
42690;SDS011;28306;55.744;37.578;2022-10-29T02:31:43;3.13;;;1.00;;
42690;SDS011;28306;55.744;37.578;2022-10-29T02:34:09;2.33;;;0.93;;
42690;SDS011;28306;55.744;37.578;2022-10-29T02:36:34;1.40;;;0.93;;
42690;SDS011;28306;55.744;37.578;2022-10-29T02:39:00;1.90;;;1.10;;
42690;SDS011;28306;55.744;37.578;2022-10-29T02:41:26;1.77;;;0.80;;
42690;SDS011;28306;55.744;37.578;2022-10-29T02:43:51;1.73;;;0.85;;
42690;SDS011;28306;55.744;37.578;2022-10-29T02:46:18;1.75;;;0.82;;
42690;SDS011;28306;55.744;37.578;2022-10-29T02:48:46;2.85;;;1.20;;
42690;SDS011;28306;55.744;37.578;2022-10-29T02:51:12;1.90;;;0.98;;
42690;SDS011;28306;55.744;37.578;2022-10-29T02:53:38;1.48;;;0.90;;
42690;SDS011;28306;55.744;37.578;2022-10-29T02:56:05;1.50;;;0.90;;
42690;SDS011;28306;55.744;37.578;2022-10-29T02:58:31;2.42;;;1.17;;
42690;SDS011;28306;55.744;37.578;2022-10-29T03:00:57;1.65;;;0.80;;
42690;SDS011;28306;55.744;37.578;2022-10-29T03:03:23;1.20;;;0.73;;
42690;SDS011;28306;55.744;37.578;2022-10-29T03:05:49;3.28;;;1.30;;
42690;SDS011;28306;55.744;37.578;2022-10-29T03:08:15;1.33;;;0.68;;
42690;SDS011;28306;55.744;37.578;2022-10-29T03:10:41;1.73;;;0.73;;
42690;SDS011;28306;55.744;37.578;2022-10-29T03:13:06;2.95;;;0.80;;
42690;SDS011;28306;55.744;37.578;2022-10-29T03:15:32;1.95;;;0.95;;
42690;SDS011;28306;55.744;37.578;2022-10-29T03:17:58;1.30;;;0.80;;
42690;SDS011;28306;55.744;37.578;2022-10-29T03:20:23;2.13;;;0.77;;
42690;SDS011;28306;55.744;37.578;2022-10-29T03:22:49;1.98;;;0.98;;
42690;SDS011;28306;55.744;37.578;2022-10-29T03:25:15;2.42;;;0.85;;
42690;SDS011;28306;55.744;37.578;2022-10-29T03:27:41;1.27;;;0.70;;
42690;SDS011;28306;55.744;37.578;2022-10-29T03:30:08;1.05;;;0.68;;
42690;SDS011;28306;55.744;37.578;2022-10-29T03:32:38;1.25;;;0.70;;
42690;SDS011;28306;55.744;37.578;2022-10-29T03:35:05;1.50;;;1.10;;
42690;SDS011;28306;55.744;37.578;2022-10-29T03:37:32;1.70;;;0.90;;
42690;SDS011;28306;55.744;37.578;2022-10-29T03:39:57;1.58;;;0.90;;
42690;SDS011;28306;55.744;37.578;2022-10-29T03:42:23;1.92;;;1.00;;
42690;SDS011;28306;55.744;37.578;2022-10-29T03:44:49;1.27;;;0.63;;
42690;SDS011;28306;55.744;37.578;2022-10-29T03:47:14;3.65;;;0.90;;
42690;SDS011;28306;55.744;37.578;2022-10-29T03:49:40;1.95;;;0.90;;
42690;SDS011;28306;55.744;37.578;2022-10-29T03:52:06;1.88;;;0.80;;
42690;SDS011;28306;55.744;37.578;2022-10-29T03:54:31;3.45;;;0.93;;
42690;SDS011;28306;55.744;37.578;2022-10-29T03:56:57;2.22;;;0.82;;
42690;SDS011;28306;55.744;37.578;2022-10-29T03:59:22;2.33;;;0.98;;
42690;SDS011;28306;55.744;37.578;2022-10-29T04:01:48;2.10;;;1.00;;
42690;SDS011;28306;55.744;37.578;2022-10-29T04:04:13;1.33;;;0.68;;
42690;SDS011;28306;55.744;37.578;2022-10-29T04:06:39;1.45;;;0.63;;
42690;SDS011;28306;55.744;37.578;2022-10-29T04:09:05;1.63;;;0.93;;
42690;SDS011;28306;55.744;37.578;2022-10-29T04:11:30;1.88;;;0.90;;
42690;SDS011;28306;55.744;37.578;2022-10-29T04:13:56;1.83;;;0.85;;
42690;SDS011;28306;55.744;37.578;2022-10-29T04:16:21;1.70;;;0.70;;
42690;SDS011;28306;55.744;37.578;2022-10-29T04:18:47;1.77;;;0.90;;
42690;SDS011;28306;55.744;37.578;2022-10-29T04:21:13;1.02;;;0.63;;
42690;SDS011;28306;55.744;37.578;2022-10-29T04:23:39;1.25;;;0.65;;
42690;SDS011;28306;55.744;37.578;2022-10-29T04:26:05;1.23;;;0.73;;
42690;SDS011;28306;55.744;37.578;2022-10-29T04:28:31;1.35;;;0.70;;
42690;SDS011;28306;55.744;37.578;2022-10-29T04:30:56;1.50;;;0.60;;
42690;SDS011;28306;55.744;37.578;2022-10-29T04:33:22;1.88;;;0.80;;
42690;SDS011;28306;55.744;37.578;2022-10-29T04:35:51;3.03;;;0.90;;
42690;SDS011;28306;55.744;37.578;2022-10-29T04:38:18;1.15;;;0.57;;
42690;SDS011;28306;55.744;37.578;2022-10-29T04:40:44;1.50;;;0.90;;
42690;SDS011;28306;55.744;37.578;2022-10-29T04:43:10;1.08;;;0.60;;
42690;SDS011;28306;55.744;37.578;2022-10-29T04:45:36;0.90;;;0.55;;
42690;SDS011;28306;55.744;37.578;2022-10-29T04:48:01;1.30;;;0.70;;
42690;SDS011;28306;55.744;37.578;2022-10-29T04:50:29;1.35;;;0.70;;
42690;SDS011;28306;55.744;37.578;2022-10-29T04:52:59;2.00;;;0.77;;
42690;SDS011;28306;55.744;37.578;2022-10-29T04:55:26;1.20;;;0.63;;
42690;SDS011;28306;55.744;37.578;2022-10-29T04:57:52;2.83;;;0.63;;
42690;SDS011;28306;55.744;37.578;2022-10-29T05:00:18;1.05;;;0.70;;
42690;SDS011;28306;55.744;37.578;2022-10-29T05:02:48;1.33;;;0.75;;
42690;SDS011;28306;55.744;37.578;2022-10-29T05:05:18;1.48;;;0.50;;
42690;SDS011;28306;55.744;37.578;2022-10-29T05:07:45;0.90;;;0.60;;
42690;SDS011;28306;55.744;37.578;2022-10-29T05:10:11;0.68;;;0.50;;
42690;SDS011;28306;55.744;37.578;2022-10-29T05:12:37;4.00;;;1.10;;
42690;SDS011;28306;55.744;37.578;2022-10-29T05:15:03;0.60;;;0.52;;
42690;SDS011;28306;55.744;37.578;2022-10-29T05:17:30;1.33;;;0.60;;
42690;SDS011;28306;55.744;37.578;2022-10-29T05:19:56;0.95;;;0.52;;
42690;SDS011;28306;55.744;37.578;2022-10-29T05:22:21;1.67;;;0.70;;
42690;SDS011;28306;55.744;37.578;2022-10-29T05:24:47;1.20;;;0.60;;
42690;SDS011;28306;55.744;37.578;2022-10-29T05:27:12;2.58;;;0.90;;
42690;SDS011;28306;55.744;37.578;2022-10-29T05:29:38;1.08;;;0.52;;
42690;SDS011;28306;55.744;37.578;2022-10-29T05:32:04;1.80;;;0.60;;
42690;SDS011;28306;55.744;37.578;2022-10-29T05:34:29;1.30;;;0.60;;
42690;SDS011;28306;55.744;37.578;2022-10-29T05:36:55;1.10;;;0.63;;
42690;SDS011;28306;55.744;37.578;2022-10-29T05:39:20;1.10;;;0.60;;
42690;SDS011;28306;55.744;37.578;2022-10-29T05:41:46;0.80;;;0.50;;
42690;SDS011;28306;55.744;37.578;2022-10-29T05:44:12;2.40;;;0.70;;
42690;SDS011;28306;55.744;37.578;2022-10-29T05:46:37;1.65;;;0.75;;
42690;SDS011;28306;55.744;37.578;2022-10-29T05:49:03;1.75;;;0.60;;
42690;SDS011;28306;55.744;37.578;2022-10-29T05:51:29;2.08;;;0.77;;
42690;SDS011;28306;55.744;37.578;2022-10-29T05:53:54;2.20;;;0.50;;
42690;SDS011;28306;55.744;37.578;2022-10-29T05:56:20;1.20;;;0.55;;
42690;SDS011;28306;55.744;37.578;2022-10-29T05:58:49;1.17;;;0.60;;
42690;SDS011;28306;55.744;37.578;2022-10-29T06:01:15;1.10;;;0.60;;
42690;SDS011;28306;55.744;37.578;2022-10-29T06:03:44;1.20;;;0.50;;
42690;SDS011;28306;55.744;37.578;2022-10-29T06:06:10;1.40;;;0.75;;
42690;SDS011;28306;55.744;37.578;2022-10-29T06:08:36;1.25;;;0.60;;
42690;SDS011;28306;55.744;37.578;2022-10-29T06:11:02;3.40;;;0.70;;
42690;SDS011;28306;55.744;37.578;2022-10-29T06:13:28;0.85;;;0.50;;
42690;SDS011;28306;55.744;37.578;2022-10-29T06:15:55;1.67;;;0.70;;
42690;SDS011;28306;55.744;37.578;2022-10-29T06:18:23;1.20;;;0.52;;
42690;SDS011;28306;55.744;37.578;2022-10-29T06:20:49;1.15;;;0.60;;
42690;SDS011;28306;55.744;37.578;2022-10-29T06:23:15;1.13;;;0.68;;
42690;SDS011;28306;55.744;37.578;2022-10-29T06:25:40;1.45;;;0.70;;
42690;SDS011;28306;55.744;37.578;2022-10-29T06:28:12;1.73;;;0.50;;
42690;SDS011;28306;55.744;37.578;2022-10-29T06:33:05;1.15;;;0.60;;
42690;SDS011;28306;55.744;37.578;2022-10-29T06:35:31;1.35;;;0.60;;
42690;SDS011;28306;55.744;37.578;2022-10-29T06:37:57;2.25;;;0.80;;
42690;SDS011;28306;55.744;37.578;2022-10-29T06:40:23;0.77;;;0.50;;
42690;SDS011;28306;55.744;37.578;2022-10-29T06:42:56;1.10;;;0.52;;
42690;SDS011;28306;55.744;37.578;2022-10-29T06:45:26;3.28;;;0.85;;
42690;SDS011;28306;55.744;37.578;2022-10-29T06:47:52;2.00;;;0.70;;
42690;SDS011;28306;55.744;37.578;2022-10-29T06:50:17;1.38;;;0.85;;
42690;SDS011;28306;55.744;37.578;2022-10-29T06:52:51;1.85;;;0.63;;
42690;SDS011;28306;55.744;37.578;2022-10-29T06:55:28;2.60;;;0.70;;
42690;SDS011;28306;55.744;37.578;2022-10-29T06:58:01;3.95;;;0.80;;
42690;SDS011;28306;55.744;37.578;2022-10-29T07:00:29;2.63;;;0.50;;
42690;SDS011;28306;55.744;37.578;2022-10-29T07:02:56;4.25;;;0.90;;
42690;SDS011;28306;55.744;37.578;2022-10-29T07:05:22;1.85;;;0.77;;
42690;SDS011;28306;55.744;37.578;2022-10-29T07:07:48;4.75;;;0.65;;
42690;SDS011;28306;55.744;37.578;2022-10-29T07:10:18;2.72;;;0.73;;
42690;SDS011;28306;55.744;37.578;2022-10-29T07:12:44;5.28;;;0.70;;
42690;SDS011;28306;55.744;37.578;2022-10-29T07:15:10;2.58;;;0.73;;
42690;SDS011;28306;55.744;37.578;2022-10-29T07:17:36;4.72;;;0.95;;
42690;SDS011;28306;55.744;37.578;2022-10-29T07:20:02;11.10;;;1.70;;
42690;SDS011;28306;55.744;37.578;2022-10-29T07:22:30;10.70;;;1.25;;
42690;SDS011;28306;55.744;37.578;2022-10-29T07:24:55;4.07;;;1.27;;
42690;SDS011;28306;55.744;37.578;2022-10-29T07:27:21;2.40;;;1.05;;
42690;SDS011;28306;55.744;37.578;2022-10-29T07:29:47;12.40;;;1.65;;
42690;SDS011;28306;55.744;37.578;2022-10-29T07:32:12;13.02;;;1.48;;
42690;SDS011;28306;55.744;37.578;2022-10-29T07:34:38;15.70;;;1.52;;
42690;SDS011;28306;55.744;37.578;2022-10-29T07:37:04;5.93;;;1.33;;
42690;SDS011;28306;55.744;37.578;2022-10-29T07:39:29;19.55;;;1.88;;
42690;SDS011;28306;55.744;37.578;2022-10-29T07:41:55;17.30;;;2.13;;
42690;SDS011;28306;55.744;37.578;2022-10-29T07:44:20;22.25;;;2.40;;
42690;SDS011;28306;55.744;37.578;2022-10-29T07:46:46;19.45;;;3.15;;
42690;SDS011;28306;55.744;37.578;2022-10-29T07:49:12;19.17;;;2.38;;
42690;SDS011;28306;55.744;37.578;2022-10-29T07:51:37;17.05;;;3.00;;
42690;SDS011;28306;55.744;37.578;2022-10-29T07:54:03;20.42;;;2.33;;
42690;SDS011;28306;55.744;37.578;2022-10-29T07:56:29;16.67;;;2.67;;
42690;SDS011;28306;55.744;37.578;2022-10-29T07:58:54;22.95;;;2.83;;
42690;SDS011;28306;55.744;37.578;2022-10-29T08:01:20;15.25;;;2.45;;
42690;SDS011;28306;55.744;37.578;2022-10-29T08:03:45;22.60;;;3.20;;
42690;SDS011;28306;55.744;37.578;2022-10-29T08:06:14;26.10;;;3.13;;
42690;SDS011;28306;55.744;37.578;2022-10-29T08:08:39;14.15;;;3.03;;
42690;SDS011;28306;55.744;37.578;2022-10-29T08:11:05;19.60;;;3.03;;
42690;SDS011;28306;55.744;37.578;2022-10-29T08:13:31;23.75;;;2.70;;
42690;SDS011;28306;55.744;37.578;2022-10-29T08:15:56;23.92;;;2.97;;
42690;SDS011;28306;55.744;37.578;2022-10-29T08:18:22;17.60;;;2.42;;
42690;SDS011;28306;55.744;37.578;2022-10-29T08:20:48;13.20;;;2.00;;
42690;SDS011;28306;55.744;37.578;2022-10-29T08:23:13;44.35;;;3.83;;
42690;SDS011;28306;55.744;37.578;2022-10-29T08:25:39;34.00;;;3.85;;
42690;SDS011;28306;55.744;37.578;2022-10-29T08:28:08;43.97;;;3.95;;
42690;SDS011;28306;55.744;37.578;2022-10-29T08:30:35;34.95;;;3.90;;
42690;SDS011;28306;55.744;37.578;2022-10-29T08:33:02;20.38;;;3.50;;
42690;SDS011;28306;55.744;37.578;2022-10-29T08:35:29;14.30;;;2.40;;
42690;SDS011;28306;55.744;37.578;2022-10-29T08:37:55;24.30;;;2.97;;
42690;SDS011;28306;55.744;37.578;2022-10-29T08:46:41;16.95;;;2.67;;
42690;SDS011;28306;55.744;37.578;2022-10-29T08:49:25;21.92;;;2.60;;
42690;SDS011;28306;55.744;37.578;2022-10-29T08:52:03;8.73;;;2.22;;
42690;SDS011;28306;55.744;37.578;2022-10-29T08:54:35;15.48;;;1.92;;
42690;SDS011;28306;55.744;37.578;2022-10-29T08:57:14;14.65;;;2.08;;
42690;SDS011;28306;55.744;37.578;2022-10-29T08:59:57;14.10;;;1.88;;
42690;SDS011;28306;55.744;37.578;2022-10-29T09:02:29;16.33;;;2.60;;
42690;SDS011;28306;55.744;37.578;2022-10-29T09:04:55;21.88;;;2.15;;
42690;SDS011;28306;55.744;37.578;2022-10-29T09:13:08;11.02;;;2.28;;
42690;SDS011;28306;55.744;37.578;2022-10-29T09:24:00;7.03;;;1.63;;
42690;SDS011;28306;55.744;37.578;2022-10-29T09:31:53;6.75;;;1.55;;
42690;SDS011;28306;55.744;37.578;2022-10-29T09:34:31;9.27;;;1.65;;
42690;SDS011;28306;55.744;37.578;2022-10-29T09:37:03;5.35;;;1.63;;
42690;SDS011;28306;55.744;37.578;2022-10-29T09:39:38;6.18;;;1.35;;
42690;SDS011;28306;55.744;37.578;2022-10-29T09:42:09;6.45;;;1.25;;
42690;SDS011;28306;55.744;37.578;2022-10-29T09:52:57;4.22;;;1.50;;
42690;SDS011;28306;55.744;37.578;2022-10-29T09:55:27;7.50;;;1.50;;
42690;SDS011;28306;55.744;37.578;2022-10-29T09:58:00;6.68;;;1.52;;
42690;SDS011;28306;55.744;37.578;2022-10-29T10:00:27;6.05;;;1.50;;
42690;SDS011;28306;55.744;37.578;2022-10-29T10:03:09;5.70;;;1.65;;
42690;SDS011;28306;55.744;37.578;2022-10-29T10:08:26;4.38;;;1.20;;
42690;SDS011;28306;55.744;37.578;2022-10-29T10:10:56;4.57;;;1.35;;
42690;SDS011;28306;55.744;37.578;2022-10-29T10:13:24;3.92;;;1.25;;
42690;SDS011;28306;55.744;37.578;2022-10-29T10:16:03;3.50;;;1.42;;
42690;SDS011;28306;55.744;37.578;2022-10-29T10:21:12;6.57;;;1.50;;
42690;SDS011;28306;55.744;37.578;2022-10-29T10:23:52;5.97;;;1.40;;
42690;SDS011;28306;55.744;37.578;2022-10-29T10:26:26;3.80;;;1.50;;
42690;SDS011;28306;55.744;37.578;2022-10-29T10:29:03;4.07;;;1.20;;
42690;SDS011;28306;55.744;37.578;2022-10-29T10:34:07;5.20;;;1.58;;
42690;SDS011;28306;55.744;37.578;2022-10-29T10:36:39;4.47;;;1.27;;
42690;SDS011;28306;55.744;37.578;2022-10-29T10:39:22;2.55;;;1.15;;
42690;SDS011;28306;55.744;37.578;2022-10-29T10:41:51;2.38;;;1.17;;
42690;SDS011;28306;55.744;37.578;2022-10-29T10:44:19;4.53;;;1.45;;
42690;SDS011;28306;55.744;37.578;2022-10-29T10:46:48;3.58;;;1.40;;
42690;SDS011;28306;55.744;37.578;2022-10-29T10:49:36;2.22;;;1.50;;
42690;SDS011;28306;55.744;37.578;2022-10-29T10:52:04;1.88;;;1.20;;
42690;SDS011;28306;55.744;37.578;2022-10-29T10:54:39;4.60;;;1.20;;
42690;SDS011;28306;55.744;37.578;2022-10-29T10:59:46;3.40;;;1.70;;
42690;SDS011;28306;55.744;37.578;2022-10-29T11:07:41;4.55;;;1.55;;
42690;SDS011;28306;55.744;37.578;2022-10-29T11:10:12;2.13;;;1.40;;
42690;SDS011;28306;55.744;37.578;2022-10-29T11:12:48;5.22;;;1.63;;
42690;SDS011;28306;55.744;37.578;2022-10-29T11:15:20;3.50;;;1.65;;
42690;SDS011;28306;55.744;37.578;2022-10-29T11:18:03;4.78;;;1.63;;
42690;SDS011;28306;55.744;37.578;2022-10-29T11:20:38;2.63;;;1.75;;
42690;SDS011;28306;55.744;37.578;2022-10-29T11:23:18;2.33;;;1.42;;
42690;SDS011;28306;55.744;37.578;2022-10-29T11:25:58;3.78;;;1.65;;
42690;SDS011;28306;55.744;37.578;2022-10-29T11:31:07;2.95;;;1.48;;
42690;SDS011;28306;55.744;37.578;2022-10-29T11:36:16;4.57;;;1.38;;
42690;SDS011;28306;55.744;37.578;2022-10-29T11:43:49;3.15;;;1.60;;
42690;SDS011;28306;55.744;37.578;2022-10-29T11:46:27;2.05;;;1.42;;
42690;SDS011;28306;55.744;37.578;2022-10-29T11:51:45;3.80;;;1.70;;
42690;SDS011;28306;55.744;37.578;2022-10-29T12:00:19;3.05;;;1.33;;
42690;SDS011;28306;55.744;37.578;2022-10-29T12:06:06;2.33;;;1.30;;
42690;SDS011;28306;55.744;37.578;2022-10-29T12:14:07;2.33;;;1.33;;
42690;SDS011;28306;55.744;37.578;2022-10-29T12:24:44;3.67;;;1.38;;
42690;SDS011;28306;55.744;37.578;2022-10-29T12:30:12;2.20;;;1.38;;
42690;SDS011;28306;55.744;37.578;2022-10-29T12:35:28;2.50;;;1.45;;
42690;SDS011;28306;55.744;37.578;2022-10-29T12:38:21;2.55;;;1.40;;
42690;SDS011;28306;55.744;37.578;2022-10-29T12:40:50;3.97;;;1.45;;
42690;SDS011;28306;55.744;37.578;2022-10-29T12:46:13;3.67;;;1.20;;
42690;SDS011;28306;55.744;37.578;2022-10-29T12:54:22;4.22;;;1.58;;
42690;SDS011;28306;55.744;37.578;2022-10-29T12:56:50;2.38;;;1.48;;
42690;SDS011;28306;55.744;37.578;2022-10-29T13:02:17;4.93;;;1.65;;
42690;SDS011;28306;55.744;37.578;2022-10-29T13:07:30;6.95;;;1.55;;
42690;SDS011;28306;55.744;37.578;2022-10-29T13:12:54;4.13;;;1.92;;
42690;SDS011;28306;55.744;37.578;2022-10-29T13:15:21;3.85;;;1.85;;
42690;SDS011;28306;55.744;37.578;2022-10-29T13:17:51;1.83;;;1.33;;
42690;SDS011;28306;55.744;37.578;2022-10-29T13:20:41;4.03;;;1.58;;
42690;SDS011;28306;55.744;37.578;2022-10-29T13:31:34;2.55;;;1.38;;
42690;SDS011;28306;55.744;37.578;2022-10-29T13:36:01;4.40;;;2.13;;
42690;SDS011;28306;55.744;37.578;2022-10-29T13:38:39;2.67;;;1.33;;
42690;SDS011;28306;55.744;37.578;2022-10-29T13:41:23;2.78;;;1.70;;
42690;SDS011;28306;55.744;37.578;2022-10-29T13:46:30;3.60;;;1.58;;
42690;SDS011;28306;55.744;37.578;2022-10-29T13:54:24;2.97;;;1.58;;
42690;SDS011;28306;55.744;37.578;2022-10-29T13:56:58;3.13;;;1.80;;
42690;SDS011;28306;55.744;37.578;2022-10-29T13:59:49;2.40;;;1.60;;
42690;SDS011;28306;55.744;37.578;2022-10-29T14:11:06;3.47;;;1.63;;
42690;SDS011;28306;55.744;37.578;2022-10-29T14:18:43;2.97;;;1.48;;
42690;SDS011;28306;55.744;37.578;2022-10-29T14:21:12;2.17;;;1.42;;
42690;SDS011;28306;55.744;37.578;2022-10-29T14:24:01;3.88;;;1.70;;
42690;SDS011;28306;55.744;37.578;2022-10-29T14:26:29;4.40;;;1.50;;
42690;SDS011;28306;55.744;37.578;2022-10-29T14:29:13;3.42;;;1.92;;
42690;SDS011;28306;55.744;37.578;2022-10-29T14:31:43;4.05;;;1.70;;
42690;SDS011;28306;55.744;37.578;2022-10-29T14:34:22;3.67;;;1.50;;
42690;SDS011;28306;55.744;37.578;2022-10-29T14:36:52;3.00;;;1.50;;
42690;SDS011;28306;55.744;37.578;2022-10-29T14:39:25;7.43;;;1.58;;
42690;SDS011;28306;55.744;37.578;2022-10-29T14:42:00;15.40;;;2.35;;
42690;SDS011;28306;55.744;37.578;2022-10-29T14:44:27;6.30;;;2.47;;
42690;SDS011;28306;55.744;37.578;2022-10-29T14:49:39;11.23;;;2.33;;
42690;SDS011;28306;55.744;37.578;2022-10-29T14:55:02;14.98;;;2.45;;
42690;SDS011;28306;55.744;37.578;2022-10-29T14:57:32;10.25;;;2.17;;
42690;SDS011;28306;55.744;37.578;2022-10-29T15:00:04;13.27;;;2.47;;
42690;SDS011;28306;55.744;37.578;2022-10-29T15:02:34;11.65;;;3.10;;
42690;SDS011;28306;55.744;37.578;2022-10-29T15:05:02;10.63;;;2.45;;
42690;SDS011;28306;55.744;37.578;2022-10-29T15:07:44;8.38;;;2.35;;
42690;SDS011;28306;55.744;37.578;2022-10-29T15:12:36;10.15;;;2.20;;
42690;SDS011;28306;55.744;37.578;2022-10-29T15:15:07;5.85;;;2.30;;
42690;SDS011;28306;55.744;37.578;2022-10-29T15:17:46;8.80;;;2.40;;
42690;SDS011;28306;55.744;37.578;2022-10-29T15:20:21;13.32;;;2.60;;
42690;SDS011;28306;55.744;37.578;2022-10-29T15:22:59;7.68;;;2.38;;
42690;SDS011;28306;55.744;37.578;2022-10-29T15:25:35;5.18;;;2.17;;
42690;SDS011;28306;55.744;37.578;2022-10-29T15:28:07;4.70;;;1.73;;
42690;SDS011;28306;55.744;37.578;2022-10-29T15:30:35;5.18;;;2.28;;
42690;SDS011;28306;55.744;37.578;2022-10-29T15:33:03;5.80;;;2.30;;
42690;SDS011;28306;55.744;37.578;2022-10-29T15:35:34;6.63;;;2.45;;
42690;SDS011;28306;55.744;37.578;2022-10-29T15:38:01;11.30;;;2.40;;
42690;SDS011;28306;55.744;37.578;2022-10-29T15:40:27;11.77;;;2.53;;
42690;SDS011;28306;55.744;37.578;2022-10-29T15:42:53;12.50;;;2.50;;
42690;SDS011;28306;55.744;37.578;2022-10-29T15:47:46;12.95;;;2.72;;
42690;SDS011;28306;55.744;37.578;2022-10-29T15:50:16;12.65;;;2.08;;
42690;SDS011;28306;55.744;37.578;2022-10-29T15:52:50;6.72;;;2.05;;
42690;SDS011;28306;55.744;37.578;2022-10-29T15:55:30;6.18;;;1.83;;
42690;SDS011;28306;55.744;37.578;2022-10-29T15:57:59;5.70;;;1.75;;
42690;SDS011;28306;55.744;37.578;2022-10-29T16:00:25;4.47;;;2.33;;
42690;SDS011;28306;55.744;37.578;2022-10-29T16:02:51;9.23;;;2.15;;
42690;SDS011;28306;55.744;37.578;2022-10-29T16:05:21;9.48;;;2.90;;
42690;SDS011;28306;55.744;37.578;2022-10-29T16:07:47;14.55;;;2.92;;
42690;SDS011;28306;55.744;37.578;2022-10-29T16:10:14;9.50;;;2.45;;
42690;SDS011;28306;55.744;37.578;2022-10-29T16:12:41;10.05;;;2.78;;
42690;SDS011;28306;55.744;37.578;2022-10-29T16:15:11;9.40;;;2.17;;
42690;SDS011;28306;55.744;37.578;2022-10-29T16:17:37;6.03;;;2.20;;
42690;SDS011;28306;55.744;37.578;2022-10-29T16:20:03;6.03;;;2.40;;
42690;SDS011;28306;55.744;37.578;2022-10-29T16:22:29;6.88;;;1.75;;
42690;SDS011;28306;55.744;37.578;2022-10-29T16:24:55;3.95;;;1.95;;
42690;SDS011;28306;55.744;37.578;2022-10-29T16:27:20;4.82;;;2.13;;
42690;SDS011;28306;55.744;37.578;2022-10-29T16:29:46;16.13;;;2.40;;
42690;SDS011;28306;55.744;37.578;2022-10-29T16:32:17;3.33;;;2.03;;
42690;SDS011;28306;55.744;37.578;2022-10-29T16:34:45;5.20;;;1.70;;
42690;SDS011;28306;55.744;37.578;2022-10-29T16:37:12;3.78;;;1.88;;
42690;SDS011;28306;55.744;37.578;2022-10-29T16:39:39;6.75;;;1.90;;
42690;SDS011;28306;55.744;37.578;2022-10-29T16:42:06;3.17;;;1.80;;
42690;SDS011;28306;55.744;37.578;2022-10-29T16:44:33;4.88;;;1.63;;
42690;SDS011;28306;55.744;37.578;2022-10-29T16:46:59;2.40;;;1.60;;
42690;SDS011;28306;55.744;37.578;2022-10-29T16:49:24;3.20;;;1.75;;
42690;SDS011;28306;55.744;37.578;2022-10-29T16:51:50;4.20;;;1.70;;
42690;SDS011;28306;55.744;37.578;2022-10-29T16:54:16;3.85;;;1.83;;
42690;SDS011;28306;55.744;37.578;2022-10-29T16:56:41;2.55;;;1.80;;
42690;SDS011;28306;55.744;37.578;2022-10-29T16:59:07;2.60;;;1.65;;
42690;SDS011;28306;55.744;37.578;2022-10-29T17:01:33;2.78;;;1.42;;
42690;SDS011;28306;55.744;37.578;2022-10-29T17:03:58;3.00;;;1.60;;
42690;SDS011;28306;55.744;37.578;2022-10-29T17:06:24;2.80;;;1.63;;
42690;SDS011;28306;55.744;37.578;2022-10-29T17:08:49;2.63;;;1.60;;
42690;SDS011;28306;55.744;37.578;2022-10-29T17:11:15;2.20;;;1.40;;
42690;SDS011;28306;55.744;37.578;2022-10-29T17:13:41;4.40;;;1.67;;
42690;SDS011;28306;55.744;37.578;2022-10-29T17:16:10;3.13;;;1.50;;
42690;SDS011;28306;55.744;37.578;2022-10-29T17:18:39;2.67;;;1.40;;
42690;SDS011;28306;55.744;37.578;2022-10-29T17:21:05;1.98;;;1.20;;
42690;SDS011;28306;55.744;37.578;2022-10-29T17:23:31;3.47;;;1.40;;
42690;SDS011;28306;55.744;37.578;2022-10-29T17:25:57;2.00;;;1.55;;
42690;SDS011;28306;55.744;37.578;2022-10-29T17:28:23;2.08;;;1.40;;
42690;SDS011;28306;55.744;37.578;2022-10-29T17:30:50;2.30;;;1.48;;
42690;SDS011;28306;55.744;37.578;2022-10-29T17:33:16;2.10;;;1.20;;
42690;SDS011;28306;55.744;37.578;2022-10-29T17:35:43;2.58;;;1.52;;
42690;SDS011;28306;55.744;37.578;2022-10-29T17:38:09;2.20;;;1.40;;
42690;SDS011;28306;55.744;37.578;2022-10-29T17:40:35;3.63;;;1.73;;
42690;SDS011;28306;55.744;37.578;2022-10-29T17:43:01;2.53;;;1.23;;